sensor_id;sensor_type;location;lat;lon;timestamp;P1;durP1;ratioP1;P2;durP2;ratioP2
4140;SDS011;2084;51.05870200;6.92092300;2022-08-16T05:25:00;6.17;;;5.67;;
4140;SDS011;2084;51.05870200;6.92092300;2022-08-16T05:27:26;6.63;;;5.43;;
4140;SDS011;2084;51.05870200;6.92092300;2022-08-16T05:29:53;11.77;;;5.20;;
4140;SDS011;2084;51.05870200;6.92092300;2022-08-16T05:32:20;5.77;;;5.27;;
4140;SDS011;2084;51.05870200;6.92092300;2022-08-16T05:34:46;6.07;;;5.77;;
4140;SDS011;2084;51.05870200;6.92092300;2022-08-16T05:37:13;5.87;;;5.50;;
4140;SDS011;2084;51.05870200;6.92092300;2022-08-16T05:39:39;12.57;;;5.83;;
4140;SDS011;2084;51.05870200;6.92092300;2022-08-16T05:42:07;6.03;;;5.83;;
4140;SDS011;2084;51.05870200;6.92092300;2022-08-16T05:44:34;9.83;;;4.90;;
4140;SDS011;2084;51.05870200;6.92092300;2022-08-16T05:47:00;6.60;;;4.57;;
4140;SDS011;2084;51.05870200;6.92092300;2022-08-16T05:49:28;6.93;;;4.80;;
4140;SDS011;2084;51.05870200;6.92092300;2022-08-16T05:51:55;7.77;;;6.13;;
4140;SDS011;2084;51.05870200;6.92092300;2022-08-16T05:54:24;6.13;;;5.63;;
4140;SDS011;2084;51.05870200;6.92092300;2022-08-16T05:56:51;5.83;;;5.43;;
4140;SDS011;2084;51.05870200;6.92092300;2022-08-16T05:59:20;5.80;;;5.30;;
4140;SDS011;2084;51.05870200;6.92092300;2022-08-16T06:01:47;6.03;;;5.40;;
4140;SDS011;2084;51.05870200;6.92092300;2022-08-16T06:04:15;5.80;;;4.77;;
4140;SDS011;2084;51.05870200;6.92092300;2022-08-16T06:06:42;5.37;;;4.90;;
4140;SDS011;2084;51.05870200;6.92092300;2022-08-16T06:09:09;7.07;;;4.77;;
4140;SDS011;2084;51.05870200;6.92092300;2022-08-16T06:11:36;5.10;;;4.17;;
4140;SDS011;2084;51.05870200;6.92092300;2022-08-16T06:14:04;5.60;;;5.20;;
4140;SDS011;2084;51.05870200;6.92092300;2022-08-16T06:16:32;4.63;;;4.43;;
4140;SDS011;2084;51.05870200;6.92092300;2022-08-16T06:18:59;7.93;;;6.30;;
4140;SDS011;2084;51.05870200;6.92092300;2022-08-16T06:21:26;7.40;;;6.20;;
4140;SDS011;2084;51.05870200;6.92092300;2022-08-16T06:23:52;10.87;;;6.70;;
4140;SDS011;2084;51.05870200;6.92092300;2022-08-16T06:26:19;7.93;;;5.03;;
4140;SDS011;2084;51.05870200;6.92092300;2022-08-16T06:28:46;5.87;;;5.47;;
4140;SDS011;2084;51.05870200;6.92092300;2022-08-16T06:31:13;5.77;;;5.43;;
4140;SDS011;2084;51.05870200;6.92092300;2022-08-16T06:33:42;5.90;;;5.30;;
4140;SDS011;2084;51.05870200;6.92092300;2022-08-16T06:36:09;11.40;;;5.70;;
4140;SDS011;2084;51.05870200;6.92092300;2022-08-16T06:38:36;6.37;;;5.77;;
4140;SDS011;2084;51.05870200;6.92092300;2022-08-16T06:41:04;7.47;;;5.73;;
4140;SDS011;2084;51.05870200;6.92092300;2022-08-16T06:43:32;6.63;;;6.20;;
4140;SDS011;2084;51.05870200;6.92092300;2022-08-16T06:46:02;8.17;;;6.10;;
4140;SDS011;2084;51.05870200;6.92092300;2022-08-16T06:48:32;15.70;;;6.60;;
4140;SDS011;2084;51.05870200;6.92092300;2022-08-16T06:51:02;7.43;;;5.27;;
4140;SDS011;2084;51.05870200;6.92092300;2022-08-16T06:53:29;8.70;;;7.93;;
4140;SDS011;2084;51.05870200;6.92092300;2022-08-16T06:55:58;6.43;;;5.83;;
4140;SDS011;2084;51.05870200;6.92092300;2022-08-16T06:58:28;7.00;;;6.50;;
4140;SDS011;2084;51.05870200;6.92092300;2022-08-16T07:00:54;10.73;;;6.60;;
4140;SDS011;2084;51.05870200;6.92092300;2022-08-16T07:03:21;12.20;;;6.50;;
4140;SDS011;2084;51.05870200;6.92092300;2022-08-16T07:05:47;8.73;;;7.97;;
4140;SDS011;2084;51.05870200;6.92092300;2022-08-16T07:08:16;7.70;;;6.37;;
4140;SDS011;2084;51.05870200;6.92092300;2022-08-16T07:10:42;7.10;;;5.73;;
4140;SDS011;2084;51.05870200;6.92092300;2022-08-16T07:13:09;8.80;;;6.27;;
4140;SDS011;2084;51.05870200;6.92092300;2022-08-16T07:15:35;7.83;;;6.07;;
4140;SDS011;2084;51.05870200;6.92092300;2022-08-16T07:18:02;9.13;;;6.10;;
4140;SDS011;2084;51.05870200;6.92092300;2022-08-16T07:20:29;9.73;;;6.60;;
4140;SDS011;2084;51.05870200;6.92092300;2022-08-16T07:22:56;5.47;;;4.93;;
4140;SDS011;2084;51.05870200;6.92092300;2022-08-16T07:25:24;6.70;;;6.10;;
4140;SDS011;2084;51.05870200;6.92092300;2022-08-16T07:27:50;6.80;;;6.30;;
4140;SDS011;2084;51.05870200;6.92092300;2022-08-16T07:30:17;12.47;;;6.33;;
4140;SDS011;2084;51.05870200;6.92092300;2022-08-16T07:32:44;8.17;;;5.40;;
4140;SDS011;2084;51.05870200;6.92092300;2022-08-16T07:35:11;15.10;;;5.40;;
4140;SDS011;2084;51.05870200;6.92092300;2022-08-16T07:37:37;6.37;;;5.77;;
4140;SDS011;2084;51.05870200;6.92092300;2022-08-16T07:40:04;5.00;;;4.70;;
4140;SDS011;2084;51.05870200;6.92092300;2022-08-16T07:42:33;6.03;;;5.40;;
4140;SDS011;2084;51.05870200;6.92092300;2022-08-16T07:44:59;6.93;;;5.10;;
4140;SDS011;2084;51.05870200;6.92092300;2022-08-16T07:47:26;6.03;;;4.80;;
4140;SDS011;2084;51.05870200;6.92092300;2022-08-16T07:49:53;7.90;;;5.30;;
4140;SDS011;2084;51.05870200;6.92092300;2022-08-16T07:52:20;5.80;;;4.47;;
4140;SDS011;2084;51.05870200;6.92092300;2022-08-16T07:54:46;9.27;;;5.67;;
4140;SDS011;2084;51.05870200;6.92092300;2022-08-16T07:57:13;8.23;;;4.83;;
4140;SDS011;2084;51.05870200;6.92092300;2022-08-16T07:59:41;6.43;;;5.10;;
4140;SDS011;2084;51.05870200;6.92092300;2022-08-16T08:02:08;8.77;;;6.10;;
4140;SDS011;2084;51.05870200;6.92092300;2022-08-16T08:04:35;5.23;;;4.60;;
4140;SDS011;2084;51.05870200;6.92092300;2022-08-16T08:07:02;5.60;;;5.30;;
4140;SDS011;2084;51.05870200;6.92092300;2022-08-16T08:09:29;7.30;;;4.80;;
4140;SDS011;2084;51.05870200;6.92092300;2022-08-16T08:11:56;16.07;;;4.30;;
4140;SDS011;2084;51.05870200;6.92092300;2022-08-16T08:14:22;13.93;;;4.80;;
4140;SDS011;2084;51.05870200;6.92092300;2022-08-16T08:16:50;11.63;;;4.10;;
4140;SDS011;2084;51.05870200;6.92092300;2022-08-16T08:19:17;11.10;;;4.57;;
4140;SDS011;2084;51.05870200;6.92092300;2022-08-16T08:21:44;5.10;;;3.90;;
4140;SDS011;2084;51.05870200;6.92092300;2022-08-16T08:24:11;6.33;;;4.33;;
4140;SDS011;2084;51.05870200;6.92092300;2022-08-16T08:26:39;7.77;;;4.63;;
4140;SDS011;2084;51.05870200;6.92092300;2022-08-16T08:29:06;10.23;;;5.40;;
4140;SDS011;2084;51.05870200;6.92092300;2022-08-16T08:31:33;6.53;;;6.03;;
4140;SDS011;2084;51.05870200;6.92092300;2022-08-16T08:34:02;5.63;;;5.00;;
4140;SDS011;2084;51.05870200;6.92092300;2022-08-16T08:36:30;6.87;;;5.17;;
4140;SDS011;2084;51.05870200;6.92092300;2022-08-16T08:38:59;5.47;;;5.10;;
4140;SDS011;2084;51.05870200;6.92092300;2022-08-16T08:41:27;5.03;;;4.70;;
4140;SDS011;2084;51.05870200;6.92092300;2022-08-16T08:43:53;7.37;;;6.13;;
4140;SDS011;2084;51.05870200;6.92092300;2022-08-16T08:46:21;5.20;;;4.90;;
4140;SDS011;2084;51.05870200;6.92092300;2022-08-16T08:48:48;8.33;;;5.23;;
4140;SDS011;2084;51.05870200;6.92092300;2022-08-16T08:51:17;7.20;;;5.27;;
4140;SDS011;2084;51.05870200;6.92092300;2022-08-16T08:53:44;5.57;;;4.80;;
4140;SDS011;2084;51.05870200;6.92092300;2022-08-16T08:56:11;9.50;;;5.00;;
4140;SDS011;2084;51.05870200;6.92092300;2022-08-16T08:58:38;6.20;;;5.40;;
4140;SDS011;2084;51.05870200;6.92092300;2022-08-16T09:01:05;5.47;;;4.93;;
4140;SDS011;2084;51.05870200;6.92092300;2022-08-16T09:03:33;9.70;;;4.73;;
4140;SDS011;2084;51.05870200;6.92092300;2022-08-16T09:06:00;6.03;;;5.63;;
4140;SDS011;2084;51.05870200;6.92092300;2022-08-16T09:08:29;7.90;;;5.40;;
4140;SDS011;2084;51.05870200;6.92092300;2022-08-16T09:10:56;5.00;;;4.50;;
4140;SDS011;2084;51.05870200;6.92092300;2022-08-16T09:13:23;12.33;;;6.00;;
4140;SDS011;2084;51.05870200;6.92092300;2022-08-16T09:15:51;6.97;;;6.37;;
4140;SDS011;2084;51.05870200;6.92092300;2022-08-16T09:18:19;8.33;;;5.43;;
4140;SDS011;2084;51.05870200;6.92092300;2022-08-16T09:20:46;8.47;;;5.30;;
4140;SDS011;2084;51.05870200;6.92092300;2022-08-16T09:23:13;5.37;;;4.23;;
4140;SDS011;2084;51.05870200;6.92092300;2022-08-16T09:25:41;5.60;;;4.87;;
4140;SDS011;2084;51.05870200;6.92092300;2022-08-16T09:28:08;4.60;;;3.87;;
4140;SDS011;2084;51.05870200;6.92092300;2022-08-16T09:30:36;13.63;;;5.87;;
4140;SDS011;2084;51.05870200;6.92092300;2022-08-16T09:33:04;5.57;;;5.07;;
4140;SDS011;2084;51.05870200;6.92092300;2022-08-16T09:35:31;4.53;;;4.30;;
4140;SDS011;2084;51.05870200;6.92092300;2022-08-16T09:37:58;5.90;;;5.60;;
4140;SDS011;2084;51.05870200;6.92092300;2022-08-16T09:40:24;7.03;;;5.87;;
4140;SDS011;2084;51.05870200;6.92092300;2022-08-16T09:42:52;7.80;;;4.90;;
4140;SDS011;2084;51.05870200;6.92092300;2022-08-16T09:45:20;6.13;;;5.57;;
4140;SDS011;2084;51.05870200;6.92092300;2022-08-16T09:47:47;12.60;;;5.03;;
4140;SDS011;2084;51.05870200;6.92092300;2022-08-16T09:50:18;19.47;;;4.27;;
4140;SDS011;2084;51.05870200;6.92092300;2022-08-16T09:52:45;16.73;;;4.80;;
4140;SDS011;2084;51.05870200;6.92092300;2022-08-16T09:55:12;7.07;;;5.40;;
4140;SDS011;2084;51.05870200;6.92092300;2022-08-16T09:57:39;5.43;;;4.93;;
4140;SDS011;2084;51.05870200;6.92092300;2022-08-16T10:00:09;8.60;;;6.00;;
4140;SDS011;2084;51.05870200;6.92092300;2022-08-16T10:02:36;6.13;;;5.13;;
4140;SDS011;2084;51.05870200;6.92092300;2022-08-16T10:05:05;9.00;;;6.13;;
4140;SDS011;2084;51.05870200;6.92092300;2022-08-16T10:07:32;7.80;;;6.13;;
4140;SDS011;2084;51.05870200;6.92092300;2022-08-16T10:09:59;10.10;;;5.93;;
4140;SDS011;2084;51.05870200;6.92092300;2022-08-16T10:12:26;6.07;;;5.50;;
4140;SDS011;2084;51.05870200;6.92092300;2022-08-16T10:15:13;5.10;;;4.70;;
4140;SDS011;2084;51.05870200;6.92092300;2022-08-16T10:17:42;6.60;;;6.00;;
4140;SDS011;2084;51.05870200;6.92092300;2022-08-16T10:20:09;9.20;;;7.40;;
4140;SDS011;2084;51.05870200;6.92092300;2022-08-16T10:22:36;8.20;;;6.20;;
4140;SDS011;2084;51.05870200;6.92092300;2022-08-16T10:25:03;6.50;;;5.83;;
4140;SDS011;2084;51.05870200;6.92092300;2022-08-16T10:27:31;6.57;;;4.90;;
4140;SDS011;2084;51.05870200;6.92092300;2022-08-16T10:29:59;10.70;;;5.27;;
4140;SDS011;2084;51.05870200;6.92092300;2022-08-16T10:32:27;5.87;;;5.47;;
4140;SDS011;2084;51.05870200;6.92092300;2022-08-16T10:34:54;6.27;;;5.73;;
4140;SDS011;2084;51.05870200;6.92092300;2022-08-16T10:37:20;5.63;;;5.30;;
4140;SDS011;2084;51.05870200;6.92092300;2022-08-16T10:39:47;11.33;;;4.40;;
4140;SDS011;2084;51.05870200;6.92092300;2022-08-16T10:42:13;14.00;;;5.40;;
4140;SDS011;2084;51.05870200;6.92092300;2022-08-16T10:44:41;4.90;;;4.43;;
4140;SDS011;2084;51.05870200;6.92092300;2022-08-16T10:47:08;6.37;;;4.60;;
4140;SDS011;2084;51.05870200;6.92092300;2022-08-16T10:49:36;9.90;;;4.87;;
4140;SDS011;2084;51.05870200;6.92092300;2022-08-16T10:52:03;7.97;;;5.93;;
4140;SDS011;2084;51.05870200;6.92092300;2022-08-16T10:54:30;8.63;;;5.63;;
4140;SDS011;2084;51.05870200;6.92092300;2022-08-16T10:56:56;7.93;;;4.67;;
4140;SDS011;2084;51.05870200;6.92092300;2022-08-16T10:59:23;5.63;;;5.13;;
4140;SDS011;2084;51.05870200;6.92092300;2022-08-16T11:01:50;16.57;;;6.40;;
4140;SDS011;2084;51.05870200;6.92092300;2022-08-16T11:04:16;10.13;;;4.83;;
4140;SDS011;2084;51.05870200;6.92092300;2022-08-16T11:06:44;4.60;;;4.27;;
4140;SDS011;2084;51.05870200;6.92092300;2022-08-16T11:09:12;12.07;;;4.40;;
4140;SDS011;2084;51.05870200;6.92092300;2022-08-16T11:11:38;7.77;;;4.67;;
4140;SDS011;2084;51.05870200;6.92092300;2022-08-16T11:14:05;4.33;;;4.03;;
4140;SDS011;2084;51.05870200;6.92092300;2022-08-16T11:16:31;4.70;;;4.30;;
4140;SDS011;2084;51.05870200;6.92092300;2022-08-16T11:18:58;4.17;;;4.00;;
4140;SDS011;2084;51.05870200;6.92092300;2022-08-16T11:21:25;3.73;;;3.43;;
4140;SDS011;2084;51.05870200;6.92092300;2022-08-16T11:23:53;5.67;;;3.73;;
4140;SDS011;2084;51.05870200;6.92092300;2022-08-16T11:26:19;4.00;;;3.70;;
4140;SDS011;2084;51.05870200;6.92092300;2022-08-16T11:28:46;5.20;;;3.03;;
4140;SDS011;2084;51.05870200;6.92092300;2022-08-16T11:31:14;4.07;;;3.80;;
4140;SDS011;2084;51.05870200;6.92092300;2022-08-16T11:33:41;7.87;;;3.27;;
4140;SDS011;2084;51.05870200;6.92092300;2022-08-16T11:36:08;11.97;;;4.63;;
4140;SDS011;2084;51.05870200;6.92092300;2022-08-16T11:38:34;4.67;;;4.13;;
4140;SDS011;2084;51.05870200;6.92092300;2022-08-16T11:41:02;11.83;;;2.93;;
4140;SDS011;2084;51.05870200;6.92092300;2022-08-16T11:43:29;3.77;;;3.57;;
4140;SDS011;2084;51.05870200;6.92092300;2022-08-16T11:45:59;3.90;;;3.60;;
4140;SDS011;2084;51.05870200;6.92092300;2022-08-16T11:48:29;3.47;;;3.30;;
4140;SDS011;2084;51.05870200;6.92092300;2022-08-16T11:50:57;7.33;;;3.60;;
4140;SDS011;2084;51.05870200;6.92092300;2022-08-16T11:53:25;3.73;;;3.40;;
4140;SDS011;2084;51.05870200;6.92092300;2022-08-16T11:55:53;8.47;;;3.37;;
4140;SDS011;2084;51.05870200;6.92092300;2022-08-16T11:58:23;9.33;;;3.77;;
4140;SDS011;2084;51.05870200;6.92092300;2022-08-16T12:00:52;3.00;;;2.80;;
4140;SDS011;2084;51.05870200;6.92092300;2022-08-16T12:03:22;3.40;;;3.10;;
4140;SDS011;2084;51.05870200;6.92092300;2022-08-16T12:05:50;2.90;;;2.77;;
4140;SDS011;2084;51.05870200;6.92092300;2022-08-16T12:08:18;5.40;;;3.33;;
4140;SDS011;2084;51.05870200;6.92092300;2022-08-16T12:10:45;5.40;;;3.03;;
4140;SDS011;2084;51.05870200;6.92092300;2022-08-16T12:13:12;2.97;;;2.73;;
4140;SDS011;2084;51.05870200;6.92092300;2022-08-16T12:15:41;7.60;;;3.20;;
4140;SDS011;2084;51.05870200;6.92092300;2022-08-16T12:18:09;4.20;;;3.90;;
4140;SDS011;2084;51.05870200;6.92092300;2022-08-16T12:20:37;3.40;;;3.10;;
4140;SDS011;2084;51.05870200;6.92092300;2022-08-16T12:23:07;8.93;;;3.57;;
4140;SDS011;2084;51.05870200;6.92092300;2022-08-16T12:25:34;7.43;;;4.30;;
4140;SDS011;2084;51.05870200;6.92092300;2022-08-16T12:28:02;7.40;;;3.43;;
4140;SDS011;2084;51.05870200;6.92092300;2022-08-16T12:30:31;2.60;;;2.40;;
4140;SDS011;2084;51.05870200;6.92092300;2022-08-16T12:33:00;5.73;;;3.30;;
4140;SDS011;2084;51.05870200;6.92092300;2022-08-16T12:35:29;2.67;;;2.57;;
4140;SDS011;2084;51.05870200;6.92092300;2022-08-16T12:37:57;6.17;;;3.50;;
4140;SDS011;2084;51.05870200;6.92092300;2022-08-16T12:40:26;4.20;;;3.00;;
4140;SDS011;2084;51.05870200;6.92092300;2022-08-16T12:42:56;6.00;;;3.67;;
4140;SDS011;2084;51.05870200;6.92092300;2022-08-16T12:45:25;3.33;;;3.13;;
4140;SDS011;2084;51.05870200;6.92092300;2022-08-16T12:47:53;3.60;;;3.37;;
4140;SDS011;2084;51.05870200;6.92092300;2022-08-16T12:50:39;9.93;;;4.30;;
4140;SDS011;2084;51.05870200;6.92092300;2022-08-16T12:53:05;7.03;;;2.73;;
4140;SDS011;2084;51.05870200;6.92092300;2022-08-16T12:55:32;7.00;;;3.17;;
4140;SDS011;2084;51.05870200;6.92092300;2022-08-16T12:57:59;7.93;;;3.13;;
4140;SDS011;2084;51.05870200;6.92092300;2022-08-16T13:00:26;5.33;;;3.13;;
4140;SDS011;2084;51.05870200;6.92092300;2022-08-16T13:02:55;2.73;;;2.53;;
4140;SDS011;2084;51.05870200;6.92092300;2022-08-16T13:05:21;3.80;;;2.90;;
4140;SDS011;2084;51.05870200;6.92092300;2022-08-16T13:07:49;8.43;;;3.60;;
4140;SDS011;2084;51.05870200;6.92092300;2022-08-16T13:10:17;3.53;;;2.97;;
4140;SDS011;2084;51.05870200;6.92092300;2022-08-16T13:12:47;6.80;;;2.90;;
4140;SDS011;2084;51.05870200;6.92092300;2022-08-16T13:15:18;4.33;;;2.93;;
4140;SDS011;2084;51.05870200;6.92092300;2022-08-16T13:17:48;7.43;;;3.30;;
4140;SDS011;2084;51.05870200;6.92092300;2022-08-16T13:20:17;2.93;;;2.73;;
4140;SDS011;2084;51.05870200;6.92092300;2022-08-16T13:22:47;2.87;;;2.70;;
4140;SDS011;2084;51.05870200;6.92092300;2022-08-16T13:25:17;3.40;;;3.20;;
4140;SDS011;2084;51.05870200;6.92092300;2022-08-16T13:27:45;4.43;;;4.13;;
4140;SDS011;2084;51.05870200;6.92092300;2022-08-16T13:30:12;3.20;;;3.03;;
4140;SDS011;2084;51.05870200;6.92092300;2022-08-16T13:32:39;3.83;;;2.70;;
4140;SDS011;2084;51.05870200;6.92092300;2022-08-16T13:35:06;8.63;;;3.43;;
4140;SDS011;2084;51.05870200;6.92092300;2022-08-16T13:37:33;3.43;;;2.93;;
4140;SDS011;2084;51.05870200;6.92092300;2022-08-16T13:40:00;6.47;;;3.53;;
4140;SDS011;2084;51.05870200;6.92092300;2022-08-16T13:42:29;6.30;;;2.83;;
4140;SDS011;2084;51.05870200;6.92092300;2022-08-16T13:44:55;3.33;;;2.40;;
4140;SDS011;2084;51.05870200;6.92092300;2022-08-16T13:47:23;3.53;;;3.20;;
4140;SDS011;2084;51.05870200;6.92092300;2022-08-16T13:49:49;4.03;;;2.40;;
4140;SDS011;2084;51.05870200;6.92092300;2022-08-16T13:52:16;6.33;;;2.67;;
4140;SDS011;2084;51.05870200;6.92092300;2022-08-16T13:54:43;2.80;;;2.60;;
4140;SDS011;2084;51.05870200;6.92092300;2022-08-16T13:57:10;6.13;;;2.47;;
4140;SDS011;2084;51.05870200;6.92092300;2022-08-16T13:59:39;3.87;;;2.00;;
4140;SDS011;2084;51.05870200;6.92092300;2022-08-16T14:02:07;5.73;;;3.00;;
4140;SDS011;2084;51.05870200;6.92092300;2022-08-16T14:04:36;3.30;;;2.07;;
4140;SDS011;2084;51.05870200;6.92092300;2022-08-16T14:07:04;6.40;;;1.90;;
4140;SDS011;2084;51.05870200;6.92092300;2022-08-16T14:09:33;3.53;;;2.13;;
4140;SDS011;2084;51.05870200;6.92092300;2022-08-16T14:12:01;2.53;;;2.33;;
4140;SDS011;2084;51.05870200;6.92092300;2022-08-16T14:14:30;2.20;;;2.10;;
4140;SDS011;2084;51.05870200;6.92092300;2022-08-16T14:16:58;1.93;;;1.83;;
4140;SDS011;2084;51.05870200;6.92092300;2022-08-16T14:19:27;4.40;;;2.10;;
4140;SDS011;2084;51.05870200;6.92092300;2022-08-16T14:21:55;5.90;;;2.60;;
4140;SDS011;2084;51.05870200;6.92092300;2022-08-16T14:24:22;4.83;;;2.73;;
4140;SDS011;2084;51.05870200;6.92092300;2022-08-16T14:26:49;2.60;;;2.20;;
4140;SDS011;2084;51.05870200;6.92092300;2022-08-16T14:29:15;6.60;;;2.70;;
4140;SDS011;2084;51.05870200;6.92092300;2022-08-16T14:31:42;2.87;;;2.63;;
4140;SDS011;2084;51.05870200;6.92092300;2022-08-16T14:34:09;3.73;;;2.77;;
4140;SDS011;2084;51.05870200;6.92092300;2022-08-16T14:36:36;3.57;;;2.73;;
4140;SDS011;2084;51.05870200;6.92092300;2022-08-16T14:39:03;4.90;;;2.07;;
4140;SDS011;2084;51.05870200;6.92092300;2022-08-16T14:41:30;3.83;;;2.37;;
4140;SDS011;2084;51.05870200;6.92092300;2022-08-16T14:43:56;4.40;;;3.57;;
4140;SDS011;2084;51.05870200;6.92092300;2022-08-16T14:46:23;2.67;;;2.20;;
4140;SDS011;2084;51.05870200;6.92092300;2022-08-16T14:48:49;4.50;;;2.80;;
4140;SDS011;2084;51.05870200;6.92092300;2022-08-16T14:51:18;2.10;;;2.00;;
4140;SDS011;2084;51.05870200;6.92092300;2022-08-16T14:53:44;2.50;;;2.30;;
4140;SDS011;2084;51.05870200;6.92092300;2022-08-16T14:56:11;2.50;;;2.40;;
4140;SDS011;2084;51.05870200;6.92092300;2022-08-16T14:58:38;2.97;;;2.63;;
4140;SDS011;2084;51.05870200;6.92092300;2022-08-16T15:01:05;3.53;;;2.50;;
4140;SDS011;2084;51.05870200;6.92092300;2022-08-16T15:03:32;10.83;;;2.70;;
4140;SDS011;2084;51.05870200;6.92092300;2022-08-16T15:05:59;2.50;;;2.40;;
4140;SDS011;2084;51.05870200;6.92092300;2022-08-16T15:08:27;3.33;;;3.00;;
4140;SDS011;2084;51.05870200;6.92092300;2022-08-16T15:10:53;4.40;;;2.60;;
4140;SDS011;2084;51.05870200;6.92092300;2022-08-16T15:13:20;2.97;;;2.80;;
4140;SDS011;2084;51.05870200;6.92092300;2022-08-16T15:15:46;3.90;;;2.73;;
4140;SDS011;2084;51.05870200;6.92092300;2022-08-16T15:18:15;2.67;;;2.47;;
4140;SDS011;2084;51.05870200;6.92092300;2022-08-16T15:20:42;4.43;;;3.10;;
4140;SDS011;2084;51.05870200;6.92092300;2022-08-16T15:23:08;11.60;;;3.47;;
4140;SDS011;2084;51.05870200;6.92092300;2022-08-16T15:25:38;8.73;;;3.93;;
4140;SDS011;2084;51.05870200;6.92092300;2022-08-16T15:28:06;3.57;;;2.50;;
4140;SDS011;2084;51.05870200;6.92092300;2022-08-16T15:30:34;3.93;;;3.50;;
4140;SDS011;2084;51.05870200;6.92092300;2022-08-16T15:33:04;4.60;;;3.00;;
4140;SDS011;2084;51.05870200;6.92092300;2022-08-16T15:35:32;3.07;;;2.87;;
4140;SDS011;2084;51.05870200;6.92092300;2022-08-16T15:38:00;7.63;;;3.63;;
4140;SDS011;2084;51.05870200;6.92092300;2022-08-16T15:40:27;10.23;;;3.27;;
4140;SDS011;2084;51.05870200;6.92092300;2022-08-16T15:42:55;8.37;;;3.07;;
4140;SDS011;2084;51.05870200;6.92092300;2022-08-16T15:45:22;4.37;;;2.40;;
4140;SDS011;2084;51.05870200;6.92092300;2022-08-16T15:48:05;2.40;;;2.30;;
4140;SDS011;2084;51.05870200;6.92092300;2022-08-16T15:50:32;2.93;;;2.73;;
4140;SDS011;2084;51.05870200;6.92092300;2022-08-16T15:53:00;8.33;;;3.60;;
4140;SDS011;2084;51.05870200;6.92092300;2022-08-16T15:55:32;3.27;;;3.07;;
4140;SDS011;2084;51.05870200;6.92092300;2022-08-16T15:58:00;2.90;;;2.80;;
4140;SDS011;2084;51.05870200;6.92092300;2022-08-16T16:00:26;5.73;;;3.70;;
4140;SDS011;2084;51.05870200;6.92092300;2022-08-16T16:03:01;5.30;;;2.83;;
4140;SDS011;2084;51.05870200;6.92092300;2022-08-16T16:05:30;4.23;;;2.60;;
4140;SDS011;2084;51.05870200;6.92092300;2022-08-16T16:07:56;3.57;;;2.47;;
4140;SDS011;2084;51.05870200;6.92092300;2022-08-16T16:10:23;4.73;;;2.83;;
4140;SDS011;2084;51.05870200;6.92092300;2022-08-16T16:12:51;5.17;;;2.00;;
4140;SDS011;2084;51.05870200;6.92092300;2022-08-16T16:15:20;3.83;;;3.53;;
4140;SDS011;2084;51.05870200;6.92092300;2022-08-16T16:17:49;6.70;;;3.20;;
4140;SDS011;2084;51.05870200;6.92092300;2022-08-16T16:20:16;3.63;;;3.33;;
4140;SDS011;2084;51.05870200;6.92092300;2022-08-16T16:22:43;6.60;;;2.97;;
4140;SDS011;2084;51.05870200;6.92092300;2022-08-16T16:25:09;4.17;;;3.30;;
4140;SDS011;2084;51.05870200;6.92092300;2022-08-16T16:27:36;9.07;;;3.10;;
4140;SDS011;2084;51.05870200;6.92092300;2022-08-16T16:30:03;4.00;;;2.90;;
4140;SDS011;2084;51.05870200;6.92092300;2022-08-16T16:32:31;13.17;;;3.17;;
4140;SDS011;2084;51.05870200;6.92092300;2022-08-16T16:34:57;5.90;;;2.70;;
4140;SDS011;2084;51.05870200;6.92092300;2022-08-16T16:37:24;6.93;;;3.60;;
4140;SDS011;2084;51.05870200;6.92092300;2022-08-16T16:39:51;5.73;;;2.63;;
4140;SDS011;2084;51.05870200;6.92092300;2022-08-16T16:42:18;5.23;;;2.43;;
4140;SDS011;2084;51.05870200;6.92092300;2022-08-16T16:44:44;5.23;;;4.50;;
4140;SDS011;2084;51.05870200;6.92092300;2022-08-16T16:47:11;3.50;;;3.20;;
4140;SDS011;2084;51.05870200;6.92092300;2022-08-16T16:49:38;10.90;;;2.80;;
4140;SDS011;2084;51.05870200;6.92092300;2022-08-16T16:52:06;4.60;;;3.27;;
4140;SDS011;2084;51.05870200;6.92092300;2022-08-16T16:54:34;3.40;;;3.10;;
4140;SDS011;2084;51.05870200;6.92092300;2022-08-16T16:57:00;7.60;;;2.53;;
4140;SDS011;2084;51.05870200;6.92092300;2022-08-16T16:59:27;4.27;;;3.87;;
4140;SDS011;2084;51.05870200;6.92092300;2022-08-16T17:01:52;9.70;;;3.37;;
4140;SDS011;2084;51.05870200;6.92092300;2022-08-16T17:04:20;7.10;;;2.70;;
4140;SDS011;2084;51.05870200;6.92092300;2022-08-16T17:06:49;8.43;;;3.10;;
4140;SDS011;2084;51.05870200;6.92092300;2022-08-16T17:09:16;6.60;;;2.80;;
4140;SDS011;2084;51.05870200;6.92092300;2022-08-16T17:11:44;6.30;;;3.03;;
4140;SDS011;2084;51.05870200;6.92092300;2022-08-16T17:14:11;3.47;;;3.17;;
4140;SDS011;2084;51.05870200;6.92092300;2022-08-16T17:16:39;3.93;;;3.73;;
4140;SDS011;2084;51.05870200;6.92092300;2022-08-16T17:19:06;5.73;;;4.07;;
4140;SDS011;2084;51.05870200;6.92092300;2022-08-16T17:21:33;3.13;;;2.50;;
4140;SDS011;2084;51.05870200;6.92092300;2022-08-16T17:24:01;4.83;;;2.37;;
4140;SDS011;2084;51.05870200;6.92092300;2022-08-16T17:26:29;13.00;;;3.97;;
4140;SDS011;2084;51.05870200;6.92092300;2022-08-16T17:28:56;6.50;;;3.20;;
4140;SDS011;2084;51.05870200;6.92092300;2022-08-16T17:31:22;2.77;;;2.60;;
4140;SDS011;2084;51.05870200;6.92092300;2022-08-16T17:33:49;3.73;;;3.57;;
4140;SDS011;2084;51.05870200;6.92092300;2022-08-16T17:36:16;6.20;;;2.70;;
4140;SDS011;2084;51.05870200;6.92092300;2022-08-16T17:38:43;6.20;;;3.87;;
4140;SDS011;2084;51.05870200;6.92092300;2022-08-16T17:41:11;5.70;;;2.90;;
4140;SDS011;2084;51.05870200;6.92092300;2022-08-16T17:43:40;3.20;;;2.90;;
4140;SDS011;2084;51.05870200;6.92092300;2022-08-16T17:46:09;3.93;;;3.23;;
4140;SDS011;2084;51.05870200;6.92092300;2022-08-16T17:48:36;6.23;;;3.60;;
4140;SDS011;2084;51.05870200;6.92092300;2022-08-16T17:51:02;6.00;;;3.33;;
4140;SDS011;2084;51.05870200;6.92092300;2022-08-16T17:53:30;3.57;;;2.73;;
4140;SDS011;2084;51.05870200;6.92092300;2022-08-16T17:55:57;3.00;;;2.67;;
4140;SDS011;2084;51.05870200;6.92092300;2022-08-16T17:58:25;3.83;;;2.90;;
4140;SDS011;2084;51.05870200;6.92092300;2022-08-16T18:00:53;9.70;;;3.67;;
4140;SDS011;2084;51.05870200;6.92092300;2022-08-16T18:03:24;4.30;;;4.00;;
4140;SDS011;2084;51.05870200;6.92092300;2022-08-16T18:05:52;17.80;;;4.40;;
4140;SDS011;2084;51.05870200;6.92092300;2022-08-16T18:08:19;9.00;;;4.10;;
4140;SDS011;2084;51.05870200;6.92092300;2022-08-16T18:10:49;4.07;;;3.87;;
4140;SDS011;2084;51.05870200;6.92092300;2022-08-16T18:13:15;4.23;;;2.50;;
4140;SDS011;2084;51.05870200;6.92092300;2022-08-16T18:15:43;3.83;;;3.63;;
4140;SDS011;2084;51.05870200;6.92092300;2022-08-16T18:18:10;4.20;;;3.80;;
4140;SDS011;2084;51.05870200;6.92092300;2022-08-16T18:20:36;5.20;;;3.27;;
4140;SDS011;2084;51.05870200;6.92092300;2022-08-16T18:23:21;7.20;;;3.57;;
4140;SDS011;2084;51.05870200;6.92092300;2022-08-16T18:25:51;6.60;;;3.10;;
4140;SDS011;2084;51.05870200;6.92092300;2022-08-16T18:28:20;11.17;;;3.50;;
4140;SDS011;2084;51.05870200;6.92092300;2022-08-16T18:30:49;3.83;;;3.50;;
4140;SDS011;2084;51.05870200;6.92092300;2022-08-16T18:33:15;5.07;;;3.97;;
4140;SDS011;2084;51.05870200;6.92092300;2022-08-16T18:35:43;3.40;;;3.20;;